<?xml version="1.0" encoding="UTF-8" standalone="no" ?>
<gpx xmlns="http://www.topografix.com/GPX/1/1" xmlns:xsi="http://www.w3.org/2001/XMLSchema-instance" xsi:schemaLocation="http://www.topografix.com/GPX/1/1 http://www.topografix.com/GPX/1/1/gpx.xsd" version="1.1" creator="VisuGPX - https://www.visugpx.com">
  <metadata>
    <name>Les rives du Tarn à ma façon à partir de Lincou</name>
    <desc><![CDATA[Départ de Lincou (250m)Ferme du Clot (350m)... La Teulière (523m)... Peret (502m)... Bois de Couffinhals... Croix du Roc (520m)... Connac (533m)... Lavabre (437m)... la Croix de Lardit... Rive droite du Tarn (240m): ... La Figarède... Lincou
]]></desc>
  </metadata>
  <wpt lat="43.99904" lon="2.56245">
    <ele>240</ele>
    <name><![CDATA[Place de Lincou]]></name>
  </wpt>
  <wpt lat="44.00729" lon="2.56469">
    <ele>360</ele>
    <name><![CDATA[Bifurcation]]></name>
  </wpt>
  <wpt lat="44.00701" lon="2.577">
    <ele>464</ele>
    <name><![CDATA[Tout droit (point de vue à 50 m) ]]></name>
  </wpt>
  <wpt lat="44.01478" lon="2.57658">
    <ele>523</ele>
    <name><![CDATA[La Teulière]]></name>
  </wpt>
  <wpt lat="44.01482" lon="2.58061">
    <ele>520</ele>
    <name><![CDATA[Petit sentier (fin du balisage Jaune)]]></name>
  </wpt>
  <wpt lat="44.02082" lon="2.5874">
    <ele>512</ele>
    <name><![CDATA[Péret-haut]]></name>
  </wpt>
  <wpt lat="44.02473" lon="2.59479">
    <ele>464</ele>
    <name><![CDATA[Dans la forêt, chemin montant à gauche]]></name>
  </wpt>
  <wpt lat="44.02937" lon="2.59815">
    <ele>512</ele>
    <name><![CDATA[Traversée de ruisseau]]></name>
  </wpt>
  <wpt lat="44.01987" lon="2.6007">
    <ele>526</ele>
    <name><![CDATA[Connac]]></name>
  </wpt>
  <wpt lat="44.01728" lon="2.599">
    <ele>488</ele>
    <name><![CDATA[Chemin vers Lavabre]]></name>
  </wpt>
  <wpt lat="44.01271" lon="2.59782">
    <ele>432</ele>
    <name><![CDATA[Lavabre]]></name>
  </wpt>
  <wpt lat="44.0101" lon="2.59697">
    <ele>381</ele>
    <name><![CDATA[Croix de Lardit]]></name>
  </wpt>
  <wpt lat="44.0076" lon="2.59681">
    <ele>248</ele>
    <name><![CDATA[Route de la vallée]]></name>
  </wpt>
  <wpt lat="44.00614" lon="2.60113">
    <ele>235</ele>
    <name><![CDATA[Aire de pique-nique]]></name>
  </wpt>
  <wpt lat="43.99902" lon="2.56245">
    <ele>240</ele>
    <name><![CDATA[Place de Lincou]]></name>
  </wpt>
  <trk>
    <name><![CDATA[Les rives du Tarn à ma façon à partir de Lincou]]></name>
    <trkseg>
      <trkpt lat="43.99904" lon="2.56245">
        <ele>240</ele>
        <time>2021-01-01T12:26:05+01:00</time>
      </trkpt>
      <trkpt lat="43.99899" lon="2.56215">
        <ele>243</ele>
        <time>2021-01-01T12:30:10+01:00</time>
      </trkpt>
      <trkpt lat="43.99923" lon="2.56217">
        <ele>241</ele>
        <time>2021-01-01T12:30:58+01:00</time>
      </trkpt>
      <trkpt lat="43.99939" lon="2.56241">
        <ele>251</ele>
        <time>2021-01-01T12:32:49+01:00</time>
      </trkpt>
      <trkpt lat="43.99963" lon="2.56241">
        <ele>261</ele>
        <time>2021-01-01T12:33:38+01:00</time>
      </trkpt>
      <trkpt lat="43.99983" lon="2.56254">
        <ele>266</ele>
        <time>2021-01-01T12:34:09+01:00</time>
      </trkpt>
      <trkpt lat="44.00002" lon="2.56273">
        <ele>246</ele>
        <time>2021-01-01T12:35:47+01:00</time>
      </trkpt>
      <trkpt lat="44.00025" lon="2.56278">
        <ele>246</ele>
        <time>2021-01-01T12:36:33+01:00</time>
      </trkpt>
      <trkpt lat="44.00048" lon="2.56281">
        <ele>246</ele>
        <time>2021-01-01T12:36:51+01:00</time>
      </trkpt>
      <trkpt lat="44.00071" lon="2.56283">
        <ele>246</ele>
        <time>2021-01-01T12:37:10+01:00</time>
      </trkpt>
      <trkpt lat="44.00094" lon="2.56282">
        <ele>247</ele>
        <time>2021-01-01T12:37:26+01:00</time>
      </trkpt>
      <trkpt lat="44.00128" lon="2.56301">
        <ele>248</ele>
        <time>2021-01-01T12:37:45+01:00</time>
      </trkpt>
      <trkpt lat="44.00136" lon="2.56278">
        <ele>250</ele>
        <time>2021-01-01T12:38:13+01:00</time>
      </trkpt>
      <trkpt lat="44.00149" lon="2.56268">
        <ele>251</ele>
        <time>2021-08-12T19:11:45+02:00</time>
      </trkpt>
      <trkpt lat="44.00147" lon="2.56246">
        <ele>253</ele>
        <time>2021-01-01T12:38:35+01:00</time>
      </trkpt>
      <trkpt lat="44.00168" lon="2.56236">
        <ele>257</ele>
        <time>2021-01-01T12:38:58+01:00</time>
      </trkpt>
      <trkpt lat="44.002" lon="2.56251">
        <ele>255</ele>
        <time>2021-01-01T12:39:36+01:00</time>
      </trkpt>
      <trkpt lat="44.0023" lon="2.56257">
        <ele>258</ele>
        <time>2021-01-01T12:39:59+01:00</time>
      </trkpt>
      <trkpt lat="44.00257" lon="2.5626">
        <ele>260</ele>
        <time>2021-01-01T12:40:18+01:00</time>
      </trkpt>
      <trkpt lat="44.00289" lon="2.56264">
        <ele>265</ele>
        <time>2021-01-01T12:42:26+01:00</time>
      </trkpt>
      <trkpt lat="44.00324" lon="2.56271">
        <ele>272</ele>
        <time>2021-01-01T12:42:58+01:00</time>
      </trkpt>
      <trkpt lat="44.00369" lon="2.5629">
        <ele>286</ele>
        <time>2021-01-01T12:43:35+01:00</time>
      </trkpt>
      <trkpt lat="44.0041" lon="2.56315">
        <ele>304</ele>
        <time>2021-01-01T12:44:06+01:00</time>
      </trkpt>
      <trkpt lat="44.00441" lon="2.5633">
        <ele>312</ele>
        <time>2021-01-01T12:44:35+01:00</time>
      </trkpt>
      <trkpt lat="44.00477" lon="2.56339">
        <ele>316</ele>
        <time>2021-01-01T12:45:33+01:00</time>
      </trkpt>
      <trkpt lat="44.00507" lon="2.5634">
        <ele>316</ele>
        <time>2021-01-01T12:46:04+01:00</time>
      </trkpt>
      <trkpt lat="44.00534" lon="2.56341">
        <ele>313</ele>
        <time>2021-01-01T12:46:46+01:00</time>
      </trkpt>
      <trkpt lat="44.00557" lon="2.56348">
        <ele>313</ele>
        <time>2021-01-01T12:47:17+01:00</time>
      </trkpt>
      <trkpt lat="44.00578" lon="2.56363">
        <ele>318</ele>
        <time>2021-01-01T12:47:41+01:00</time>
      </trkpt>
      <trkpt lat="44.00601" lon="2.56363">
        <ele>318</ele>
        <time>2021-01-01T12:48:18+01:00</time>
      </trkpt>
      <trkpt lat="44.00613" lon="2.56374">
        <ele>323</ele>
        <time>2021-01-01T12:48:47+01:00</time>
      </trkpt>
      <trkpt lat="44.00632" lon="2.56398">
        <ele>334</ele>
        <time>2021-01-01T12:49:15+01:00</time>
      </trkpt>
      <trkpt lat="44.00653" lon="2.56413">
        <ele>340</ele>
        <time>2021-01-01T12:49:37+01:00</time>
      </trkpt>
      <trkpt lat="44.00677" lon="2.56436">
        <ele>347</ele>
        <time>2021-08-12T19:13:25+02:00</time>
      </trkpt>
      <trkpt lat="44.00663" lon="2.56438">
        <ele>348</ele>
        <time>2021-01-01T12:50:15+01:00</time>
      </trkpt>
      <trkpt lat="44.00652" lon="2.5645">
        <ele>351</ele>
        <time>2021-01-01T12:52:07+01:00</time>
      </trkpt>
      <trkpt lat="44.00634" lon="2.56466">
        <ele>355</ele>
        <time>2021-01-01T12:52:33+01:00</time>
      </trkpt>
      <trkpt lat="44.00638" lon="2.56475">
        <ele>358</ele>
        <time>2021-01-01T12:53:31+01:00</time>
      </trkpt>
      <trkpt lat="44.00673" lon="2.56465">
        <ele>356</ele>
        <time>2021-01-01T12:53:48+01:00</time>
      </trkpt>
      <trkpt lat="44.00729" lon="2.56469">
        <ele>360</ele>
        <time>2021-01-01T12:54:14+01:00</time>
      </trkpt>
      <trkpt lat="44.00664" lon="2.56518">
        <ele>373</ele>
        <time>2021-01-01T12:55:08+01:00</time>
      </trkpt>
      <trkpt lat="44.00639" lon="2.56518">
        <ele>371</ele>
        <time>2021-01-01T12:55:28+01:00</time>
      </trkpt>
      <trkpt lat="44.00609" lon="2.56517">
        <ele>368</ele>
        <time>2021-01-01T12:55:51+01:00</time>
      </trkpt>
      <trkpt lat="44.00564" lon="2.56523">
        <ele>367</ele>
        <time>2021-01-01T12:56:11+01:00</time>
      </trkpt>
      <trkpt lat="44.00547" lon="2.56514">
        <ele>363</ele>
        <time>2021-01-01T12:56:30+01:00</time>
      </trkpt>
      <trkpt lat="44.00527" lon="2.56518">
        <ele>363</ele>
        <time>2021-01-01T12:56:49+01:00</time>
      </trkpt>
      <trkpt lat="44.00508" lon="2.56532">
        <ele>364</ele>
        <time>2021-01-01T12:57:12+01:00</time>
      </trkpt>
      <trkpt lat="44.00497" lon="2.56554">
        <ele>365</ele>
        <time>2021-01-01T12:57:38+01:00</time>
      </trkpt>
      <trkpt lat="44.0049" lon="2.56577">
        <ele>363</ele>
        <time>2021-08-12T19:14:40+02:00</time>
      </trkpt>
      <trkpt lat="44.00499" lon="2.56582">
        <ele>369</ele>
        <time>2021-01-01T12:58:01+01:00</time>
      </trkpt>
      <trkpt lat="44.00507" lon="2.56612">
        <ele>369</ele>
        <time>2021-01-01T12:58:20+01:00</time>
      </trkpt>
      <trkpt lat="44.00515" lon="2.56641">
        <ele>371</ele>
        <time>2021-01-01T12:58:45+01:00</time>
      </trkpt>
      <trkpt lat="44.0053" lon="2.56664">
        <ele>378</ele>
        <time>2021-01-01T12:59:06+01:00</time>
      </trkpt>
      <trkpt lat="44.00543" lon="2.56691">
        <ele>380</ele>
        <time>2021-01-01T12:59:25+01:00</time>
      </trkpt>
      <trkpt lat="44.00554" lon="2.5672">
        <ele>381</ele>
        <time>2021-01-01T12:59:47+01:00</time>
      </trkpt>
      <trkpt lat="44.00563" lon="2.56748">
        <ele>382</ele>
        <time>2021-01-01T13:00:05+01:00</time>
      </trkpt>
      <trkpt lat="44.00571" lon="2.56778">
        <ele>382</ele>
        <time>2021-01-01T13:00:25+01:00</time>
      </trkpt>
      <trkpt lat="44.00576" lon="2.5681">
        <ele>381</ele>
        <time>2021-01-01T13:00:47+01:00</time>
      </trkpt>
      <trkpt lat="44.00576" lon="2.56843">
        <ele>378</ele>
        <time>2021-01-01T13:01:06+01:00</time>
      </trkpt>
      <trkpt lat="44.00577" lon="2.56874">
        <ele>378</ele>
        <time>2021-01-01T13:01:23+01:00</time>
      </trkpt>
      <trkpt lat="44.00577" lon="2.56907">
        <ele>379</ele>
        <time>2021-01-01T13:01:47+01:00</time>
      </trkpt>
      <trkpt lat="44.00576" lon="2.56939">
        <ele>380</ele>
        <time>2021-01-01T13:02:07+01:00</time>
      </trkpt>
      <trkpt lat="44.00582" lon="2.5697">
        <ele>386</ele>
        <time>2021-01-01T13:02:28+01:00</time>
      </trkpt>
      <trkpt lat="44.00582" lon="2.57004">
        <ele>388</ele>
        <time>2021-01-01T13:03:20+01:00</time>
      </trkpt>
      <trkpt lat="44.00578" lon="2.57038">
        <ele>387</ele>
        <time>2021-01-01T13:03:44+01:00</time>
      </trkpt>
      <trkpt lat="44.00576" lon="2.57072">
        <ele>387</ele>
        <time>2021-01-01T13:04:09+01:00</time>
      </trkpt>
      <trkpt lat="44.00573" lon="2.57108">
        <ele>386</ele>
        <time>2021-01-01T13:04:34+01:00</time>
      </trkpt>
      <trkpt lat="44.00571" lon="2.57132">
        <ele>385</ele>
        <time>2021-01-01T13:04:55+01:00</time>
      </trkpt>
      <trkpt lat="44.00575" lon="2.57156">
        <ele>386</ele>
        <time>2021-01-01T13:05:17+01:00</time>
      </trkpt>
      <trkpt lat="44.00583" lon="2.57187">
        <ele>389</ele>
        <time>2021-01-01T13:05:41+01:00</time>
      </trkpt>
      <trkpt lat="44.00592" lon="2.57215">
        <ele>391</ele>
        <time>2021-01-01T13:06:04+01:00</time>
      </trkpt>
      <trkpt lat="44.00601" lon="2.57257">
        <ele>393</ele>
        <time>2021-01-01T13:06:30+01:00</time>
      </trkpt>
      <trkpt lat="44.00608" lon="2.57216">
        <ele>397</ele>
        <time>2021-01-01T13:07:41+01:00</time>
      </trkpt>
      <trkpt lat="44.00608" lon="2.57184">
        <ele>399</ele>
        <time>2021-01-01T13:08:07+01:00</time>
      </trkpt>
      <trkpt lat="44.00611" lon="2.57153">
        <ele>402</ele>
        <time>2021-01-01T13:08:31+01:00</time>
      </trkpt>
      <trkpt lat="44.00615" lon="2.57121">
        <ele>405</ele>
        <time>2021-01-01T13:08:54+01:00</time>
      </trkpt>
      <trkpt lat="44.00622" lon="2.57063">
        <ele>409</ele>
        <time>2021-01-01T13:09:17+01:00</time>
      </trkpt>
      <trkpt lat="44.00634" lon="2.57114">
        <ele>414</ele>
        <time>2021-01-01T13:10:07+01:00</time>
      </trkpt>
      <trkpt lat="44.00647" lon="2.5714">
        <ele>418</ele>
        <time>2021-01-01T13:10:32+01:00</time>
      </trkpt>
      <trkpt lat="44.00663" lon="2.57162">
        <ele>424</ele>
        <time>2021-01-01T13:10:59+01:00</time>
      </trkpt>
      <trkpt lat="44.00678" lon="2.57187">
        <ele>428</ele>
        <time>2021-01-01T13:11:20+01:00</time>
      </trkpt>
      <trkpt lat="44.00693" lon="2.5721">
        <ele>433</ele>
        <time>2021-01-01T13:11:44+01:00</time>
      </trkpt>
      <trkpt lat="44.00705" lon="2.57238">
        <ele>435</ele>
        <time>2021-01-01T13:12:11+01:00</time>
      </trkpt>
      <trkpt lat="44.00717" lon="2.57263">
        <ele>439</ele>
        <time>2021-01-01T13:13:09+01:00</time>
      </trkpt>
      <trkpt lat="44.00724" lon="2.57293">
        <ele>442</ele>
        <time>2021-01-01T13:13:33+01:00</time>
      </trkpt>
      <trkpt lat="44.00727" lon="2.57325">
        <ele>444</ele>
        <time>2021-01-01T13:13:55+01:00</time>
      </trkpt>
      <trkpt lat="44.00726" lon="2.57356">
        <ele>446</ele>
        <time>2021-01-01T13:14:19+01:00</time>
      </trkpt>
      <trkpt lat="44.00724" lon="2.57388">
        <ele>449</ele>
        <time>2021-01-01T13:14:37+01:00</time>
      </trkpt>
      <trkpt lat="44.00715" lon="2.57418">
        <ele>448</ele>
        <time>2021-01-01T13:15:01+01:00</time>
      </trkpt>
      <trkpt lat="44.00707" lon="2.57449">
        <ele>447</ele>
        <time>2021-01-01T13:15:19+01:00</time>
      </trkpt>
      <trkpt lat="44.00703" lon="2.5748">
        <ele>447</ele>
        <time>2021-01-01T13:15:39+01:00</time>
      </trkpt>
      <trkpt lat="44.00704" lon="2.57511">
        <ele>451</ele>
        <time>2021-01-01T13:16:03+01:00</time>
      </trkpt>
      <trkpt lat="44.00709" lon="2.57542">
        <ele>456</ele>
        <time>2021-01-01T13:16:30+01:00</time>
      </trkpt>
      <trkpt lat="44.00709" lon="2.57574">
        <ele>458</ele>
        <time>2021-01-01T13:16:52+01:00</time>
      </trkpt>
      <trkpt lat="44.00712" lon="2.57606">
        <ele>462</ele>
        <time>2021-01-01T13:17:14+01:00</time>
      </trkpt>
      <trkpt lat="44.00706" lon="2.57638">
        <ele>463</ele>
        <time>2021-01-01T13:17:38+01:00</time>
      </trkpt>
      <trkpt lat="44.00701" lon="2.57669">
        <ele>464</ele>
        <time>2021-01-01T13:17:59+01:00</time>
      </trkpt>
      <trkpt lat="44.00701" lon="2.577">
        <ele>464</ele>
        <time>2021-01-01T13:18:24+01:00</time>
      </trkpt>
      <trkpt lat="44.00707" lon="2.57731">
        <ele>466</ele>
        <time>2021-01-01T13:19:26+01:00</time>
      </trkpt>
      <trkpt lat="44.00718" lon="2.57758">
        <ele>470</ele>
        <time>2021-01-01T13:19:50+01:00</time>
      </trkpt>
      <trkpt lat="44.00733" lon="2.57782">
        <ele>473</ele>
        <time>2021-01-01T13:20:10+01:00</time>
      </trkpt>
      <trkpt lat="44.00747" lon="2.57806">
        <ele>476</ele>
        <time>2021-01-01T13:20:30+01:00</time>
      </trkpt>
      <trkpt lat="44.00765" lon="2.57826">
        <ele>481</ele>
        <time>2021-01-01T13:21:11+01:00</time>
      </trkpt>
      <trkpt lat="44.00788" lon="2.5783">
        <ele>489</ele>
        <time>2021-01-01T13:23:04+01:00</time>
      </trkpt>
      <trkpt lat="44.00806" lon="2.57873">
        <ele>478</ele>
        <time>2021-01-01T13:23:27+01:00</time>
      </trkpt>
      <trkpt lat="44.0082" lon="2.57896">
        <ele>475</ele>
        <time>2021-01-01T13:23:46+01:00</time>
      </trkpt>
      <trkpt lat="44.00843" lon="2.57918">
        <ele>472</ele>
        <time>2021-01-01T13:24:05+01:00</time>
      </trkpt>
      <trkpt lat="44.0086" lon="2.5791">
        <ele>477</ele>
        <time>2021-01-01T13:24:27+01:00</time>
      </trkpt>
      <trkpt lat="44.00883" lon="2.57902">
        <ele>481</ele>
        <time>2021-01-01T13:24:51+01:00</time>
      </trkpt>
      <trkpt lat="44.00902" lon="2.57884">
        <ele>488</ele>
        <time>2021-01-01T13:25:18+01:00</time>
      </trkpt>
      <trkpt lat="44.00942" lon="2.57827">
        <ele>503</ele>
        <time>2021-01-01T13:26:20+01:00</time>
      </trkpt>
      <trkpt lat="44.0096" lon="2.57798">
        <ele>508</ele>
        <time>2021-01-01T13:26:39+01:00</time>
      </trkpt>
      <trkpt lat="44.00981" lon="2.57771">
        <ele>513</ele>
        <time>2021-01-01T13:26:59+01:00</time>
      </trkpt>
      <trkpt lat="44.01017" lon="2.57773">
        <ele>509</ele>
        <time>2021-01-01T13:27:27+01:00</time>
      </trkpt>
      <trkpt lat="44.0104" lon="2.57791">
        <ele>502</ele>
        <time>2021-01-01T13:27:52+01:00</time>
      </trkpt>
      <trkpt lat="44.01063" lon="2.57784">
        <ele>503</ele>
        <time>2021-01-01T13:28:13+01:00</time>
      </trkpt>
      <trkpt lat="44.01085" lon="2.57774">
        <ele>503</ele>
        <time>2021-01-01T13:28:29+01:00</time>
      </trkpt>
      <trkpt lat="44.01105" lon="2.57756">
        <ele>505</ele>
        <time>2021-01-01T13:28:53+01:00</time>
      </trkpt>
      <trkpt lat="44.01126" lon="2.57742">
        <ele>506</ele>
        <time>2021-01-01T13:29:13+01:00</time>
      </trkpt>
      <trkpt lat="44.01147" lon="2.57728">
        <ele>507</ele>
        <time>2021-01-01T13:29:35+01:00</time>
      </trkpt>
      <trkpt lat="44.01169" lon="2.57716">
        <ele>507</ele>
        <time>2021-01-01T13:29:56+01:00</time>
      </trkpt>
      <trkpt lat="44.0119" lon="2.57703">
        <ele>508</ele>
        <time>2021-01-01T13:30:13+01:00</time>
      </trkpt>
      <trkpt lat="44.01206" lon="2.57679">
        <ele>510</ele>
        <time>2021-01-01T13:30:39+01:00</time>
      </trkpt>
      <trkpt lat="44.01223" lon="2.57659">
        <ele>512</ele>
        <time>2021-01-01T13:31:01+01:00</time>
      </trkpt>
      <trkpt lat="44.01236" lon="2.57632">
        <ele>513</ele>
        <time>2021-01-01T13:31:22+01:00</time>
      </trkpt>
      <trkpt lat="44.01249" lon="2.57606">
        <ele>514</ele>
        <time>2021-01-01T13:31:43+01:00</time>
      </trkpt>
      <trkpt lat="44.01263" lon="2.57581">
        <ele>516</ele>
        <time>2021-01-01T13:32:03+01:00</time>
      </trkpt>
      <trkpt lat="44.01287" lon="2.57582">
        <ele>516</ele>
        <time>2021-01-01T13:32:28+01:00</time>
      </trkpt>
      <trkpt lat="44.0131" lon="2.57582">
        <ele>516</ele>
        <time>2021-01-01T13:32:49+01:00</time>
      </trkpt>
      <trkpt lat="44.01333" lon="2.57581">
        <ele>516</ele>
        <time>2021-01-01T13:33:09+01:00</time>
      </trkpt>
      <trkpt lat="44.01356" lon="2.57578">
        <ele>517</ele>
        <time>2021-01-01T13:33:31+01:00</time>
      </trkpt>
      <trkpt lat="44.01378" lon="2.57568">
        <ele>517</ele>
        <time>2021-01-01T13:33:53+01:00</time>
      </trkpt>
      <trkpt lat="44.01413" lon="2.57548">
        <ele>516</ele>
        <time>2021-01-01T13:34:12+01:00</time>
      </trkpt>
      <trkpt lat="44.01423" lon="2.57559">
        <ele>517</ele>
        <time>2021-01-01T13:34:32+01:00</time>
      </trkpt>
      <trkpt lat="44.01436" lon="2.57585">
        <ele>519</ele>
        <time>2021-01-01T13:34:52+01:00</time>
      </trkpt>
      <trkpt lat="44.0145" lon="2.57609">
        <ele>520</ele>
        <time>2021-01-01T13:35:12+01:00</time>
      </trkpt>
      <trkpt lat="44.01469" lon="2.57626">
        <ele>521</ele>
        <time>2021-01-01T13:35:32+01:00</time>
      </trkpt>
      <trkpt lat="44.01487" lon="2.57645">
        <ele>523</ele>
        <time>2021-01-01T13:35:56+01:00</time>
      </trkpt>
      <trkpt lat="44.01478" lon="2.57658">
        <ele>523</ele>
        <time>2021-01-01T13:36:35+01:00</time>
      </trkpt>
      <trkpt lat="44.01479" lon="2.57679">
        <ele>523</ele>
        <time>2021-01-01T13:38:09+01:00</time>
      </trkpt>
      <trkpt lat="44.01481" lon="2.57714">
        <ele>524</ele>
        <time>2021-01-01T13:38:30+01:00</time>
      </trkpt>
      <trkpt lat="44.0148" lon="2.57745">
        <ele>525</ele>
        <time>2021-01-01T13:38:48+01:00</time>
      </trkpt>
      <trkpt lat="44.0148" lon="2.57777">
        <ele>525</ele>
        <time>2021-01-01T13:39:07+01:00</time>
      </trkpt>
      <trkpt lat="44.01476" lon="2.57808">
        <ele>524</ele>
        <time>2021-01-01T13:39:26+01:00</time>
      </trkpt>
      <trkpt lat="44.01477" lon="2.5784">
        <ele>524</ele>
        <time>2021-01-01T13:39:44+01:00</time>
      </trkpt>
      <trkpt lat="44.01473" lon="2.57871">
        <ele>524</ele>
        <time>2021-01-01T13:40:02+01:00</time>
      </trkpt>
      <trkpt lat="44.01477" lon="2.57902">
        <ele>524</ele>
        <time>2021-01-01T13:40:24+01:00</time>
      </trkpt>
      <trkpt lat="44.01474" lon="2.57935">
        <ele>524</ele>
        <time>2021-01-01T13:40:41+01:00</time>
      </trkpt>
      <trkpt lat="44.01476" lon="2.57968">
        <ele>524</ele>
        <time>2021-01-01T13:41:01+01:00</time>
      </trkpt>
      <trkpt lat="44.01481" lon="2.57999">
        <ele>524</ele>
        <time>2021-01-01T13:41:23+01:00</time>
      </trkpt>
      <trkpt lat="44.01486" lon="2.5803">
        <ele>523</ele>
        <time>2021-01-01T13:41:42+01:00</time>
      </trkpt>
      <trkpt lat="44.01482" lon="2.58061">
        <ele>520</ele>
        <time>2021-01-01T13:42:28+01:00</time>
      </trkpt>
      <trkpt lat="44.01499" lon="2.58082">
        <ele>519</ele>
        <time>2021-01-01T13:43:49+01:00</time>
      </trkpt>
      <trkpt lat="44.01534" lon="2.58073">
        <ele>518</ele>
        <time>2021-01-01T13:44:15+01:00</time>
      </trkpt>
      <trkpt lat="44.01572" lon="2.58064">
        <ele>517</ele>
        <time>2021-01-01T13:44:40+01:00</time>
      </trkpt>
      <trkpt lat="44.0157" lon="2.58073">
        <ele>515</ele>
        <time>2021-01-01T13:45:01+01:00</time>
      </trkpt>
      <trkpt lat="44.01592" lon="2.58077">
        <ele>513</ele>
        <time>2021-01-01T13:45:35+01:00</time>
      </trkpt>
      <trkpt lat="44.01611" lon="2.58094">
        <ele>508</ele>
        <time>2021-01-01T13:45:57+01:00</time>
      </trkpt>
      <trkpt lat="44.01632" lon="2.5811">
        <ele>504</ele>
        <time>2021-01-01T13:46:25+01:00</time>
      </trkpt>
      <trkpt lat="44.01652" lon="2.58123">
        <ele>500</ele>
        <time>2021-01-01T13:46:48+01:00</time>
      </trkpt>
      <trkpt lat="44.01675" lon="2.58129">
        <ele>498</ele>
        <time>2021-01-01T13:47:13+01:00</time>
      </trkpt>
      <trkpt lat="44.01697" lon="2.58128">
        <ele>497</ele>
        <time>2021-01-01T13:47:36+01:00</time>
      </trkpt>
      <trkpt lat="44.01721" lon="2.5813">
        <ele>495</ele>
        <time>2021-01-01T13:48:01+01:00</time>
      </trkpt>
      <trkpt lat="44.01742" lon="2.58116">
        <ele>497</ele>
        <time>2021-01-01T13:48:28+01:00</time>
      </trkpt>
      <trkpt lat="44.01765" lon="2.58107">
        <ele>496</ele>
        <time>2021-01-01T13:48:51+01:00</time>
      </trkpt>
      <trkpt lat="44.01786" lon="2.58093">
        <ele>497</ele>
        <time>2021-01-01T13:49:09+01:00</time>
      </trkpt>
      <trkpt lat="44.01808" lon="2.58084">
        <ele>497</ele>
        <time>2021-01-01T13:49:33+01:00</time>
      </trkpt>
      <trkpt lat="44.01831" lon="2.58075">
        <ele>496</ele>
        <time>2021-01-01T13:49:54+01:00</time>
      </trkpt>
      <trkpt lat="44.01853" lon="2.58065">
        <ele>498</ele>
        <time>2021-01-01T13:50:13+01:00</time>
      </trkpt>
      <trkpt lat="44.01877" lon="2.58061">
        <ele>497</ele>
        <time>2021-01-01T13:50:34+01:00</time>
      </trkpt>
      <trkpt lat="44.01898" lon="2.58048">
        <ele>499</ele>
        <time>2021-01-01T13:50:56+01:00</time>
      </trkpt>
      <trkpt lat="44.0192" lon="2.58053">
        <ele>497</ele>
        <time>2021-01-01T13:51:39+01:00</time>
      </trkpt>
      <trkpt lat="44.01934" lon="2.58078">
        <ele>493</ele>
        <time>2021-01-01T13:52:07+01:00</time>
      </trkpt>
      <trkpt lat="44.01953" lon="2.58095">
        <ele>492</ele>
        <time>2021-01-01T13:52:31+01:00</time>
      </trkpt>
      <trkpt lat="44.01958" lon="2.58126">
        <ele>486</ele>
        <time>2021-01-01T13:53:11+01:00</time>
      </trkpt>
      <trkpt lat="44.01953" lon="2.58153">
        <ele>479</ele>
        <time>2021-01-01T13:53:36+01:00</time>
      </trkpt>
      <trkpt lat="44.01984" lon="2.58179">
        <ele>483</ele>
        <time>2021-01-01T13:53:59+01:00</time>
      </trkpt>
      <trkpt lat="44.01989" lon="2.5821">
        <ele>482</ele>
        <time>2021-01-01T13:54:26+01:00</time>
      </trkpt>
      <trkpt lat="44.01999" lon="2.58238">
        <ele>483</ele>
        <time>2021-01-01T13:54:45+01:00</time>
      </trkpt>
      <trkpt lat="44.02002" lon="2.58262">
        <ele>483</ele>
        <time>2021-01-01T13:56:30+01:00</time>
      </trkpt>
      <trkpt lat="44.02012" lon="2.58291">
        <ele>486</ele>
        <time>2021-01-01T13:56:47+01:00</time>
      </trkpt>
      <trkpt lat="44.02011" lon="2.58325">
        <ele>486</ele>
        <time>2021-01-01T13:57:11+01:00</time>
      </trkpt>
      <trkpt lat="44.02005" lon="2.58356">
        <ele>488</ele>
        <time>2021-01-01T13:57:37+01:00</time>
      </trkpt>
      <trkpt lat="44.02005" lon="2.58388">
        <ele>491</ele>
        <time>2021-01-01T13:58:02+01:00</time>
      </trkpt>
      <trkpt lat="44.0201" lon="2.58419">
        <ele>496</ele>
        <time>2021-01-01T13:58:25+01:00</time>
      </trkpt>
      <trkpt lat="44.02008" lon="2.58452">
        <ele>499</ele>
        <time>2021-01-01T13:58:46+01:00</time>
      </trkpt>
      <trkpt lat="44.02012" lon="2.58483">
        <ele>502</ele>
        <time>2021-01-01T13:59:12+01:00</time>
      </trkpt>
      <trkpt lat="44.02011" lon="2.58511">
        <ele>504</ele>
        <time>2021-01-01T13:59:38+01:00</time>
      </trkpt>
      <trkpt lat="44.02015" lon="2.58546">
        <ele>505</ele>
        <time>2021-01-01T13:59:59+01:00</time>
      </trkpt>
      <trkpt lat="44.02017" lon="2.58578">
        <ele>506</ele>
        <time>2021-01-01T14:00:20+01:00</time>
      </trkpt>
      <trkpt lat="44.02017" lon="2.58612">
        <ele>506</ele>
        <time>2021-01-01T14:00:39+01:00</time>
      </trkpt>
      <trkpt lat="44.02033" lon="2.58637">
        <ele>508</ele>
        <time>2021-01-01T14:01:01+01:00</time>
      </trkpt>
      <trkpt lat="44.02041" lon="2.58666">
        <ele>509</ele>
        <time>2021-01-01T14:01:21+01:00</time>
      </trkpt>
      <trkpt lat="44.02058" lon="2.5869">
        <ele>510</ele>
        <time>2021-01-01T14:01:38+01:00</time>
      </trkpt>
      <trkpt lat="44.02067" lon="2.58713">
        <ele>510</ele>
        <time>2021-01-01T14:01:56+01:00</time>
      </trkpt>
      <trkpt lat="44.02082" lon="2.5874">
        <ele>512</ele>
        <time>2021-01-01T14:02:18+01:00</time>
      </trkpt>
      <trkpt lat="44.02095" lon="2.58766">
        <ele>512</ele>
        <time>2021-01-01T14:02:49+01:00</time>
      </trkpt>
      <trkpt lat="44.0211" lon="2.58789">
        <ele>513</ele>
        <time>2021-01-01T14:03:09+01:00</time>
      </trkpt>
      <trkpt lat="44.02128" lon="2.58809">
        <ele>514</ele>
        <time>2021-01-01T14:03:31+01:00</time>
      </trkpt>
      <trkpt lat="44.02147" lon="2.58827">
        <ele>515</ele>
        <time>2021-01-01T14:03:52+01:00</time>
      </trkpt>
      <trkpt lat="44.02169" lon="2.58836">
        <ele>517</ele>
        <time>2021-01-01T14:04:12+01:00</time>
      </trkpt>
      <trkpt lat="44.02192" lon="2.58842">
        <ele>518</ele>
        <time>2021-01-01T14:04:30+01:00</time>
      </trkpt>
      <trkpt lat="44.02214" lon="2.58839">
        <ele>521</ele>
        <time>2021-01-01T14:05:19+01:00</time>
      </trkpt>
      <trkpt lat="44.02237" lon="2.58839">
        <ele>523</ele>
        <time>2021-01-01T14:05:36+01:00</time>
      </trkpt>
      <trkpt lat="44.0226" lon="2.58842">
        <ele>526</ele>
        <time>2021-01-01T14:05:55+01:00</time>
      </trkpt>
      <trkpt lat="44.0228" lon="2.58862">
        <ele>525</ele>
        <time>2021-01-01T14:06:18+01:00</time>
      </trkpt>
      <trkpt lat="44.02299" lon="2.58879">
        <ele>525</ele>
        <time>2021-01-01T14:06:33+01:00</time>
      </trkpt>
      <trkpt lat="44.0232" lon="2.58896">
        <ele>526</ele>
        <time>2021-01-01T14:06:55+01:00</time>
      </trkpt>
      <trkpt lat="44.02334" lon="2.5892">
        <ele>525</ele>
        <time>2021-01-01T14:07:17+01:00</time>
      </trkpt>
      <trkpt lat="44.02344" lon="2.5895">
        <ele>525</ele>
        <time>2021-01-01T14:07:41+01:00</time>
      </trkpt>
      <trkpt lat="44.02342" lon="2.58981">
        <ele>521</ele>
        <time>2021-01-01T14:08:04+01:00</time>
      </trkpt>
      <trkpt lat="44.02334" lon="2.59011">
        <ele>516</ele>
        <time>2021-01-01T14:08:24+01:00</time>
      </trkpt>
      <trkpt lat="44.02326" lon="2.59041">
        <ele>515</ele>
        <time>2021-01-01T14:08:42+01:00</time>
      </trkpt>
      <trkpt lat="44.02315" lon="2.59081">
        <ele>511</ele>
        <time>2021-01-01T14:09:03+01:00</time>
      </trkpt>
      <trkpt lat="44.02313" lon="2.59104">
        <ele>509</ele>
        <time>2021-01-01T14:09:20+01:00</time>
      </trkpt>
      <trkpt lat="44.02311" lon="2.59127">
        <ele>506</ele>
        <time>2021-08-12T19:28:35+02:00</time>
      </trkpt>
      <trkpt lat="44.02308" lon="2.59161">
        <ele>503</ele>
        <time>2021-01-01T14:09:37+01:00</time>
      </trkpt>
      <trkpt lat="44.02325" lon="2.59188">
        <ele>501</ele>
        <time>2021-01-01T14:10:00+01:00</time>
      </trkpt>
      <trkpt lat="44.02344" lon="2.59207">
        <ele>499</ele>
        <time>2021-01-01T14:10:26+01:00</time>
      </trkpt>
      <trkpt lat="44.02365" lon="2.59211">
        <ele>502</ele>
        <time>2021-01-01T14:10:51+01:00</time>
      </trkpt>
      <trkpt lat="44.02382" lon="2.59231">
        <ele>499</ele>
        <time>2021-01-01T14:11:16+01:00</time>
      </trkpt>
      <trkpt lat="44.02401" lon="2.5925">
        <ele>496</ele>
        <time>2021-01-01T14:11:44+01:00</time>
      </trkpt>
      <trkpt lat="44.02422" lon="2.59262">
        <ele>498</ele>
        <time>2021-01-01T14:12:06+01:00</time>
      </trkpt>
      <trkpt lat="44.02444" lon="2.59272">
        <ele>502</ele>
        <time>2021-01-01T14:12:21+01:00</time>
      </trkpt>
      <trkpt lat="44.02438" lon="2.59302">
        <ele>496</ele>
        <time>2021-01-01T14:12:55+01:00</time>
      </trkpt>
      <trkpt lat="44.02427" lon="2.5933">
        <ele>490</ele>
        <time>2021-01-01T14:13:15+01:00</time>
      </trkpt>
      <trkpt lat="44.02411" lon="2.59353">
        <ele>484</ele>
        <time>2021-01-01T14:13:32+01:00</time>
      </trkpt>
      <trkpt lat="44.02393" lon="2.59373">
        <ele>476</ele>
        <time>2021-01-01T14:13:55+01:00</time>
      </trkpt>
      <trkpt lat="44.02365" lon="2.59406">
        <ele>463</ele>
        <time>2021-01-01T14:14:19+01:00</time>
      </trkpt>
      <trkpt lat="44.02394" lon="2.59424">
        <ele>470</ele>
        <time>2021-01-01T14:14:42+01:00</time>
      </trkpt>
      <trkpt lat="44.02411" lon="2.59445">
        <ele>470</ele>
        <time>2021-01-01T14:15:08+01:00</time>
      </trkpt>
      <trkpt lat="44.0243" lon="2.59462">
        <ele>466</ele>
        <time>2021-01-01T14:15:26+01:00</time>
      </trkpt>
      <trkpt lat="44.02451" lon="2.59478">
        <ele>463</ele>
        <time>2021-01-01T14:15:49+01:00</time>
      </trkpt>
      <trkpt lat="44.02473" lon="2.59479">
        <ele>464</ele>
        <time>2021-01-01T14:16:20+01:00</time>
      </trkpt>
      <trkpt lat="44.02496" lon="2.59473">
        <ele>468</ele>
        <time>2021-01-01T14:18:04+01:00</time>
      </trkpt>
      <trkpt lat="44.02518" lon="2.59462">
        <ele>473</ele>
        <time>2021-01-01T14:18:30+01:00</time>
      </trkpt>
      <trkpt lat="44.02539" lon="2.5945">
        <ele>478</ele>
        <time>2021-01-01T14:19:01+01:00</time>
      </trkpt>
      <trkpt lat="44.02577" lon="2.59432">
        <ele>483</ele>
        <time>2021-01-01T14:20:02+01:00</time>
      </trkpt>
      <trkpt lat="44.02599" lon="2.59433">
        <ele>485</ele>
        <time>2021-01-01T14:21:11+01:00</time>
      </trkpt>
      <trkpt lat="44.02622" lon="2.59431">
        <ele>490</ele>
        <time>2021-01-01T14:21:34+01:00</time>
      </trkpt>
      <trkpt lat="44.02646" lon="2.59432">
        <ele>493</ele>
        <time>2021-01-01T14:21:56+01:00</time>
      </trkpt>
      <trkpt lat="44.02641" lon="2.59402">
        <ele>503</ele>
        <time>2021-01-01T14:22:52+01:00</time>
      </trkpt>
      <trkpt lat="44.02619" lon="2.59391">
        <ele>504</ele>
        <time>2021-01-01T14:23:26+01:00</time>
      </trkpt>
      <trkpt lat="44.026" lon="2.59373">
        <ele>507</ele>
        <time>2021-01-01T14:24:08+01:00</time>
      </trkpt>
      <trkpt lat="44.02617" lon="2.59352">
        <ele>518</ele>
        <time>2021-01-01T14:25:13+01:00</time>
      </trkpt>
      <trkpt lat="44.02641" lon="2.59354">
        <ele>522</ele>
        <time>2021-01-01T14:25:35+01:00</time>
      </trkpt>
      <trkpt lat="44.02659" lon="2.59373">
        <ele>518</ele>
        <time>2021-01-01T14:26:04+01:00</time>
      </trkpt>
      <trkpt lat="44.02682" lon="2.59376">
        <ele>522</ele>
        <time>2021-01-01T14:26:23+01:00</time>
      </trkpt>
      <trkpt lat="44.02705" lon="2.59378">
        <ele>527</ele>
        <time>2021-01-01T14:26:49+01:00</time>
      </trkpt>
      <trkpt lat="44.02728" lon="2.59384">
        <ele>531</ele>
        <time>2021-01-01T14:27:11+01:00</time>
      </trkpt>
      <trkpt lat="44.02749" lon="2.594">
        <ele>531</ele>
        <time>2021-01-01T14:27:38+01:00</time>
      </trkpt>
      <trkpt lat="44.02765" lon="2.59423">
        <ele>528</ele>
        <time>2021-01-01T14:28:00+01:00</time>
      </trkpt>
      <trkpt lat="44.02776" lon="2.59451">
        <ele>522</ele>
        <time>2021-01-01T14:28:22+01:00</time>
      </trkpt>
      <trkpt lat="44.02796" lon="2.59467">
        <ele>524</ele>
        <time>2021-01-01T14:28:53+01:00</time>
      </trkpt>
      <trkpt lat="44.02819" lon="2.59471">
        <ele>531</ele>
        <time>2021-01-01T14:29:17+01:00</time>
      </trkpt>
      <trkpt lat="44.02822" lon="2.59502">
        <ele>525</ele>
        <time>2021-01-01T14:30:02+01:00</time>
      </trkpt>
      <trkpt lat="44.02816" lon="2.59533">
        <ele>520</ele>
        <time>2021-01-01T14:30:28+01:00</time>
      </trkpt>
      <trkpt lat="44.02806" lon="2.59561">
        <ele>514</ele>
        <time>2021-01-01T14:30:46+01:00</time>
      </trkpt>
      <trkpt lat="44.02793" lon="2.59588">
        <ele>506</ele>
        <time>2021-01-01T14:31:06+01:00</time>
      </trkpt>
      <trkpt lat="44.02794" lon="2.5962">
        <ele>504</ele>
        <time>2021-01-01T14:31:24+01:00</time>
      </trkpt>
      <trkpt lat="44.02808" lon="2.59647">
        <ele>506</ele>
        <time>2021-01-01T14:31:45+01:00</time>
      </trkpt>
      <trkpt lat="44.0282" lon="2.59674">
        <ele>507</ele>
        <time>2021-01-01T14:32:08+01:00</time>
      </trkpt>
      <trkpt lat="44.02834" lon="2.59699">
        <ele>506</ele>
        <time>2021-01-01T14:32:31+01:00</time>
      </trkpt>
      <trkpt lat="44.02848" lon="2.59724">
        <ele>506</ele>
        <time>2021-01-01T14:32:54+01:00</time>
      </trkpt>
      <trkpt lat="44.02864" lon="2.59748">
        <ele>506</ele>
        <time>2021-01-01T14:33:10+01:00</time>
      </trkpt>
      <trkpt lat="44.02884" lon="2.59763">
        <ele>510</ele>
        <time>2021-01-01T14:33:29+01:00</time>
      </trkpt>
      <trkpt lat="44.02903" lon="2.59783">
        <ele>512</ele>
        <time>2021-01-01T14:33:46+01:00</time>
      </trkpt>
      <trkpt lat="44.02914" lon="2.59811">
        <ele>510</ele>
        <time>2021-01-01T14:34:09+01:00</time>
      </trkpt>
      <trkpt lat="44.02937" lon="2.59815">
        <ele>512</ele>
        <time>2021-01-01T14:34:36+01:00</time>
      </trkpt>
      <trkpt lat="44.02915" lon="2.59827">
        <ele>509</ele>
        <time>2021-01-01T14:35:59+01:00</time>
      </trkpt>
      <trkpt lat="44.02892" lon="2.59831">
        <ele>509</ele>
        <time>2021-01-01T14:36:21+01:00</time>
      </trkpt>
      <trkpt lat="44.02869" lon="2.5983">
        <ele>510</ele>
        <time>2021-01-01T14:36:50+01:00</time>
      </trkpt>
      <trkpt lat="44.02845" lon="2.59833">
        <ele>511</ele>
        <time>2021-01-01T14:37:19+01:00</time>
      </trkpt>
      <trkpt lat="44.02828" lon="2.59812">
        <ele>509</ele>
        <time>2021-01-01T14:37:49+01:00</time>
      </trkpt>
      <trkpt lat="44.02806" lon="2.598">
        <ele>511</ele>
        <time>2021-01-01T14:38:19+01:00</time>
      </trkpt>
      <trkpt lat="44.02784" lon="2.59789">
        <ele>513</ele>
        <time>2021-01-01T14:38:42+01:00</time>
      </trkpt>
      <trkpt lat="44.02764" lon="2.59774">
        <ele>512</ele>
        <time>2021-01-01T14:39:00+01:00</time>
      </trkpt>
      <trkpt lat="44.02744" lon="2.59759">
        <ele>512</ele>
        <time>2021-01-01T14:39:25+01:00</time>
      </trkpt>
      <trkpt lat="44.02723" lon="2.59744">
        <ele>514</ele>
        <time>2021-01-01T14:39:46+01:00</time>
      </trkpt>
      <trkpt lat="44.02701" lon="2.59731">
        <ele>517</ele>
        <time>2021-01-01T14:40:10+01:00</time>
      </trkpt>
      <trkpt lat="44.02684" lon="2.59711">
        <ele>518</ele>
        <time>2021-01-01T14:40:44+01:00</time>
      </trkpt>
      <trkpt lat="44.02662" lon="2.59699">
        <ele>519</ele>
        <time>2021-01-01T14:41:07+01:00</time>
      </trkpt>
      <trkpt lat="44.02639" lon="2.59698">
        <ele>518</ele>
        <time>2021-01-01T14:41:29+01:00</time>
      </trkpt>
      <trkpt lat="44.02619" lon="2.59712">
        <ele>520</ele>
        <time>2021-01-01T14:41:49+01:00</time>
      </trkpt>
      <trkpt lat="44.02599" lon="2.59727">
        <ele>523</ele>
        <time>2021-01-01T14:42:08+01:00</time>
      </trkpt>
      <trkpt lat="44.02579" lon="2.59745">
        <ele>527</ele>
        <time>2021-01-01T14:42:31+01:00</time>
      </trkpt>
      <trkpt lat="44.02565" lon="2.59755">
        <ele>527</ele>
        <time>2021-01-01T14:42:46+01:00</time>
      </trkpt>
      <trkpt lat="44.02543" lon="2.59791">
        <ele>534</ele>
        <time>2021-01-01T14:43:06+01:00</time>
      </trkpt>
      <trkpt lat="44.02525" lon="2.59805">
        <ele>535</ele>
        <time>2021-01-01T14:43:26+01:00</time>
      </trkpt>
      <trkpt lat="44.02494" lon="2.59817">
        <ele>536</ele>
        <time>2021-01-01T14:43:46+01:00</time>
      </trkpt>
      <trkpt lat="44.02468" lon="2.59826">
        <ele>539</ele>
        <time>2021-01-01T14:44:13+01:00</time>
      </trkpt>
      <trkpt lat="44.02437" lon="2.59825">
        <ele>538</ele>
        <time>2021-01-01T14:44:34+01:00</time>
      </trkpt>
      <trkpt lat="44.02415" lon="2.59819">
        <ele>534</ele>
        <time>2021-01-01T14:44:50+01:00</time>
      </trkpt>
      <trkpt lat="44.02389" lon="2.59812">
        <ele>531</ele>
        <time>2021-01-01T14:45:10+01:00</time>
      </trkpt>
      <trkpt lat="44.02377" lon="2.59804">
        <ele>527</ele>
        <time>2021-01-01T14:45:32+01:00</time>
      </trkpt>
      <trkpt lat="44.0236" lon="2.59796">
        <ele>524</ele>
        <time>2021-01-01T14:45:53+01:00</time>
      </trkpt>
      <trkpt lat="44.02335" lon="2.5979">
        <ele>521</ele>
        <time>2021-01-01T14:46:10+01:00</time>
      </trkpt>
      <trkpt lat="44.02312" lon="2.59785">
        <ele>519</ele>
        <time>2021-01-01T14:46:30+01:00</time>
      </trkpt>
      <trkpt lat="44.0229" lon="2.59779">
        <ele>517</ele>
        <time>2021-01-01T14:46:51+01:00</time>
      </trkpt>
      <trkpt lat="44.02267" lon="2.59772">
        <ele>515</ele>
        <time>2021-01-01T14:47:09+01:00</time>
      </trkpt>
      <trkpt lat="44.02244" lon="2.59768">
        <ele>513</ele>
        <time>2021-01-01T14:47:25+01:00</time>
      </trkpt>
      <trkpt lat="44.02222" lon="2.59778">
        <ele>512</ele>
        <time>2021-01-01T14:47:46+01:00</time>
      </trkpt>
      <trkpt lat="44.02202" lon="2.59796">
        <ele>513</ele>
        <time>2021-01-01T14:48:08+01:00</time>
      </trkpt>
      <trkpt lat="44.02183" lon="2.59816">
        <ele>515</ele>
        <time>2021-01-01T14:48:31+01:00</time>
      </trkpt>
      <trkpt lat="44.02163" lon="2.59831">
        <ele>514</ele>
        <time>2021-01-01T14:48:54+01:00</time>
      </trkpt>
      <trkpt lat="44.02143" lon="2.59846">
        <ele>516</ele>
        <time>2021-01-01T14:49:12+01:00</time>
      </trkpt>
      <trkpt lat="44.02122" lon="2.59858">
        <ele>516</ele>
        <time>2021-01-01T14:49:38+01:00</time>
      </trkpt>
      <trkpt lat="44.02105" lon="2.59879">
        <ele>517</ele>
        <time>2021-01-01T14:50:31+01:00</time>
      </trkpt>
      <trkpt lat="44.02092" lon="2.59906">
        <ele>520</ele>
        <time>2021-01-01T14:50:52+01:00</time>
      </trkpt>
      <trkpt lat="44.02079" lon="2.59932">
        <ele>522</ele>
        <time>2021-01-01T14:51:14+01:00</time>
      </trkpt>
      <trkpt lat="44.02065" lon="2.59958">
        <ele>523</ele>
        <time>2021-01-01T14:51:34+01:00</time>
      </trkpt>
      <trkpt lat="44.02053" lon="2.59984">
        <ele>526</ele>
        <time>2021-01-01T14:51:55+01:00</time>
      </trkpt>
      <trkpt lat="44.02038" lon="2.60008">
        <ele>527</ele>
        <time>2021-01-01T14:52:16+01:00</time>
      </trkpt>
      <trkpt lat="44.02021" lon="2.60028">
        <ele>526</ele>
        <time>2021-01-01T14:52:34+01:00</time>
      </trkpt>
      <trkpt lat="44.02003" lon="2.60048">
        <ele>526</ele>
        <time>2021-01-01T14:52:54+01:00</time>
      </trkpt>
      <trkpt lat="44.01987" lon="2.6007">
        <ele>526</ele>
        <time>2021-01-01T14:53:14+01:00</time>
      </trkpt>
      <trkpt lat="44.01979" lon="2.601">
        <ele>527</ele>
        <time>2021-01-01T14:53:32+01:00</time>
      </trkpt>
      <trkpt lat="44.01981" lon="2.60133">
        <ele>528</ele>
        <time>2021-01-01T14:53:51+01:00</time>
      </trkpt>
      <trkpt lat="44.01986" lon="2.60152">
        <ele>530</ele>
        <time>2021-01-01T14:54:13+01:00</time>
      </trkpt>
      <trkpt lat="44.0199" lon="2.60172">
        <ele>531</ele>
        <time>2021-01-01T14:54:33+01:00</time>
      </trkpt>
      <trkpt lat="44.01994" lon="2.60195">
        <ele>531</ele>
        <time>2021-08-12T19:37:20+02:00</time>
      </trkpt>
      <trkpt lat="44.01992" lon="2.60208">
        <ele>530</ele>
        <time>2021-01-01T14:55:08+01:00</time>
      </trkpt>
      <trkpt lat="44.01994" lon="2.60195">
        <ele>531</ele>
        <time>2021-01-01T14:55:38+01:00</time>
      </trkpt>
      <trkpt lat="44.0199" lon="2.60171">
        <ele>531</ele>
        <time>2021-01-01T14:55:54+01:00</time>
      </trkpt>
      <trkpt lat="44.01986" lon="2.60152">
        <ele>530</ele>
        <time>2021-08-12T19:37:40+02:00</time>
      </trkpt>
      <trkpt lat="44.0197" lon="2.60148">
        <ele>527</ele>
        <time>2021-01-01T14:56:19+01:00</time>
      </trkpt>
      <trkpt lat="44.01951" lon="2.60154">
        <ele>524</ele>
        <time>2021-08-12T19:37:50+02:00</time>
      </trkpt>
      <trkpt lat="44.01947" lon="2.60142">
        <ele>523</ele>
        <time>2021-01-01T14:56:45+01:00</time>
      </trkpt>
      <trkpt lat="44.01932" lon="2.60116">
        <ele>520</ele>
        <time>2021-01-01T14:57:07+01:00</time>
      </trkpt>
      <trkpt lat="44.01924" lon="2.60109">
        <ele>519</ele>
        <time>2021-01-01T14:57:58+01:00</time>
      </trkpt>
      <trkpt lat="44.01912" lon="2.6008">
        <ele>516</ele>
        <time>2021-01-01T14:58:18+01:00</time>
      </trkpt>
      <trkpt lat="44.01898" lon="2.60056">
        <ele>512</ele>
        <time>2021-01-01T14:58:39+01:00</time>
      </trkpt>
      <trkpt lat="44.01883" lon="2.60032">
        <ele>510</ele>
        <time>2021-01-01T14:58:59+01:00</time>
      </trkpt>
      <trkpt lat="44.01866" lon="2.60009">
        <ele>507</ele>
        <time>2021-01-01T14:59:20+01:00</time>
      </trkpt>
      <trkpt lat="44.01849" lon="2.59986">
        <ele>505</ele>
        <time>2021-01-01T14:59:39+01:00</time>
      </trkpt>
      <trkpt lat="44.01833" lon="2.59964">
        <ele>503</ele>
        <time>2021-01-01T14:59:58+01:00</time>
      </trkpt>
      <trkpt lat="44.01814" lon="2.59945">
        <ele>499</ele>
        <time>2021-01-01T15:00:17+01:00</time>
      </trkpt>
      <trkpt lat="44.01794" lon="2.59931">
        <ele>496</ele>
        <time>2021-01-01T15:00:36+01:00</time>
      </trkpt>
      <trkpt lat="44.01772" lon="2.59918">
        <ele>493</ele>
        <time>2021-01-01T15:00:55+01:00</time>
      </trkpt>
      <trkpt lat="44.01751" lon="2.59908">
        <ele>491</ele>
        <time>2021-01-01T15:01:17+01:00</time>
      </trkpt>
      <trkpt lat="44.01728" lon="2.599">
        <ele>488</ele>
        <time>2021-01-01T15:02:08+01:00</time>
      </trkpt>
      <trkpt lat="44.01706" lon="2.59897">
        <ele>486</ele>
        <time>2021-01-01T15:02:28+01:00</time>
      </trkpt>
      <trkpt lat="44.01683" lon="2.59905">
        <ele>484</ele>
        <time>2021-01-01T15:02:49+01:00</time>
      </trkpt>
      <trkpt lat="44.01662" lon="2.59916">
        <ele>481</ele>
        <time>2021-01-01T15:04:25+01:00</time>
      </trkpt>
      <trkpt lat="44.0164" lon="2.59926">
        <ele>477</ele>
        <time>2021-01-01T15:04:46+01:00</time>
      </trkpt>
      <trkpt lat="44.01617" lon="2.59933">
        <ele>472</ele>
        <time>2021-01-01T15:05:12+01:00</time>
      </trkpt>
      <trkpt lat="44.01602" lon="2.59932">
        <ele>470</ele>
        <time>2021-08-12T19:39:30+02:00</time>
      </trkpt>
      <trkpt lat="44.0159" lon="2.59926">
        <ele>470</ele>
        <time>2021-01-01T15:05:34+01:00</time>
      </trkpt>
      <trkpt lat="44.01573" lon="2.5991">
        <ele>469</ele>
        <time>2021-01-01T15:05:57+01:00</time>
      </trkpt>
      <trkpt lat="44.01553" lon="2.59893">
        <ele>467</ele>
        <time>2021-01-01T15:06:17+01:00</time>
      </trkpt>
      <trkpt lat="44.01533" lon="2.59878">
        <ele>465</ele>
        <time>2021-01-01T15:06:38+01:00</time>
      </trkpt>
      <trkpt lat="44.01511" lon="2.59868">
        <ele>463</ele>
        <time>2021-01-01T15:06:59+01:00</time>
      </trkpt>
      <trkpt lat="44.01489" lon="2.5987">
        <ele>459</ele>
        <time>2021-01-01T15:08:15+01:00</time>
      </trkpt>
      <trkpt lat="44.01466" lon="2.59867">
        <ele>456</ele>
        <time>2021-01-01T15:08:40+01:00</time>
      </trkpt>
      <trkpt lat="44.01443" lon="2.59865">
        <ele>453</ele>
        <time>2021-01-01T15:09:03+01:00</time>
      </trkpt>
      <trkpt lat="44.0142" lon="2.5986">
        <ele>451</ele>
        <time>2021-01-01T15:09:28+01:00</time>
      </trkpt>
      <trkpt lat="44.01399" lon="2.5985">
        <ele>449</ele>
        <time>2021-01-01T15:09:52+01:00</time>
      </trkpt>
      <trkpt lat="44.01377" lon="2.59841">
        <ele>446</ele>
        <time>2021-01-01T15:10:11+01:00</time>
      </trkpt>
      <trkpt lat="44.01356" lon="2.5983">
        <ele>444</ele>
        <time>2021-01-01T15:10:31+01:00</time>
      </trkpt>
      <trkpt lat="44.01334" lon="2.59821">
        <ele>441</ele>
        <time>2021-01-01T15:10:51+01:00</time>
      </trkpt>
      <trkpt lat="44.01311" lon="2.59813">
        <ele>437</ele>
        <time>2021-01-01T15:11:23+01:00</time>
      </trkpt>
      <trkpt lat="44.01289" lon="2.59802">
        <ele>434</ele>
        <time>2021-01-01T15:11:46+01:00</time>
      </trkpt>
      <trkpt lat="44.01271" lon="2.59782">
        <ele>432</ele>
        <time>2021-01-01T15:12:07+01:00</time>
      </trkpt>
      <trkpt lat="44.01251" lon="2.59765">
        <ele>430</ele>
        <time>2021-01-01T15:13:00+01:00</time>
      </trkpt>
      <trkpt lat="44.01238" lon="2.59738">
        <ele>430</ele>
        <time>2021-01-01T15:13:24+01:00</time>
      </trkpt>
      <trkpt lat="44.01228" lon="2.59719">
        <ele>429</ele>
        <time>2021-01-01T15:13:48+01:00</time>
      </trkpt>
      <trkpt lat="44.01233" lon="2.59673">
        <ele>432</ele>
        <time>2021-01-01T15:14:08+01:00</time>
      </trkpt>
      <trkpt lat="44.01206" lon="2.59684">
        <ele>426</ele>
        <time>2021-01-01T15:14:26+01:00</time>
      </trkpt>
      <trkpt lat="44.01201" lon="2.59701">
        <ele>424</ele>
        <time>2021-08-12T19:41:20+02:00</time>
      </trkpt>
      <trkpt lat="44.01189" lon="2.59705">
        <ele>422</ele>
        <time>2021-01-01T15:14:53+01:00</time>
      </trkpt>
      <trkpt lat="44.01166" lon="2.59703">
        <ele>417</ele>
        <time>2021-01-01T15:15:17+01:00</time>
      </trkpt>
      <trkpt lat="44.01143" lon="2.59695">
        <ele>413</ele>
        <time>2021-01-01T15:15:40+01:00</time>
      </trkpt>
      <trkpt lat="44.01121" lon="2.59687">
        <ele>409</ele>
        <time>2021-01-01T15:16:00+01:00</time>
      </trkpt>
      <trkpt lat="44.011" lon="2.59677">
        <ele>406</ele>
        <time>2021-01-01T15:16:21+01:00</time>
      </trkpt>
      <trkpt lat="44.01077" lon="2.5967">
        <ele>401</ele>
        <time>2021-01-01T15:16:46+01:00</time>
      </trkpt>
      <trkpt lat="44.01055" lon="2.59661">
        <ele>394</ele>
        <time>2021-01-01T15:17:07+01:00</time>
      </trkpt>
      <trkpt lat="44.01038" lon="2.59683">
        <ele>389</ele>
        <time>2021-01-01T15:17:33+01:00</time>
      </trkpt>
      <trkpt lat="44.01027" lon="2.59708">
        <ele>386</ele>
        <time>2021-08-12T19:42:05+02:00</time>
      </trkpt>
      <trkpt lat="44.0101" lon="2.59697">
        <ele>381</ele>
        <time>2021-01-01T15:18:16+01:00</time>
      </trkpt>
      <trkpt lat="44.01002" lon="2.59718">
        <ele>379</ele>
        <time>2021-01-01T15:19:27+01:00</time>
      </trkpt>
      <trkpt lat="44.00988" lon="2.59742">
        <ele>374</ele>
        <time>2021-01-01T15:19:51+01:00</time>
      </trkpt>
      <trkpt lat="44.00979" lon="2.59771">
        <ele>370</ele>
        <time>2021-01-01T15:20:16+01:00</time>
      </trkpt>
      <trkpt lat="44.00966" lon="2.59797">
        <ele>365</ele>
        <time>2021-01-01T15:20:42+01:00</time>
      </trkpt>
      <trkpt lat="44.00953" lon="2.59823">
        <ele>361</ele>
        <time>2021-01-01T15:21:11+01:00</time>
      </trkpt>
      <trkpt lat="44.0094" lon="2.59849">
        <ele>357</ele>
        <time>2021-01-01T15:21:33+01:00</time>
      </trkpt>
      <trkpt lat="44.00929" lon="2.59876">
        <ele>354</ele>
        <time>2021-01-01T15:22:14+01:00</time>
      </trkpt>
      <trkpt lat="44.00917" lon="2.59904">
        <ele>353</ele>
        <time>2021-01-01T15:22:36+01:00</time>
      </trkpt>
      <trkpt lat="44.00906" lon="2.59932">
        <ele>348</ele>
        <time>2021-01-01T15:23:00+01:00</time>
      </trkpt>
      <trkpt lat="44.00899" lon="2.59962">
        <ele>343</ele>
        <time>2021-01-01T15:23:22+01:00</time>
      </trkpt>
      <trkpt lat="44.0089" lon="2.5999">
        <ele>339</ele>
        <time>2021-01-01T15:23:43+01:00</time>
      </trkpt>
      <trkpt lat="44.00882" lon="2.6002">
        <ele>334</ele>
        <time>2021-01-01T15:24:04+01:00</time>
      </trkpt>
      <trkpt lat="44.00872" lon="2.6005">
        <ele>329</ele>
        <time>2021-01-01T15:24:25+01:00</time>
      </trkpt>
      <trkpt lat="44.00863" lon="2.60078">
        <ele>326</ele>
        <time>2021-01-01T15:24:45+01:00</time>
      </trkpt>
      <trkpt lat="44.00854" lon="2.60107">
        <ele>322</ele>
        <time>2021-01-01T15:25:09+01:00</time>
      </trkpt>
      <trkpt lat="44.00851" lon="2.60154">
        <ele>315</ele>
        <time>2021-01-01T15:25:34+01:00</time>
      </trkpt>
      <trkpt lat="44.0084" lon="2.60161">
        <ele>313</ele>
        <time>2021-08-12T19:43:35+02:00</time>
      </trkpt>
      <trkpt lat="44.00829" lon="2.60132">
        <ele>315</ele>
        <time>2021-01-01T15:26:35+01:00</time>
      </trkpt>
      <trkpt lat="44.00818" lon="2.60104">
        <ele>314</ele>
        <time>2021-01-01T15:27:03+01:00</time>
      </trkpt>
      <trkpt lat="44.00809" lon="2.60075">
        <ele>312</ele>
        <time>2021-01-01T15:27:31+01:00</time>
      </trkpt>
      <trkpt lat="44.00802" lon="2.60045">
        <ele>309</ele>
        <time>2021-01-01T15:27:58+01:00</time>
      </trkpt>
      <trkpt lat="44.00797" lon="2.60014">
        <ele>307</ele>
        <time>2021-01-01T15:28:25+01:00</time>
      </trkpt>
      <trkpt lat="44.00789" lon="2.60012">
        <ele>303</ele>
        <time>2021-08-12T19:44:05+02:00</time>
      </trkpt>
      <trkpt lat="44.00787" lon="2.60042">
        <ele>301</ele>
        <time>2021-01-01T15:28:55+01:00</time>
      </trkpt>
      <trkpt lat="44.00781" lon="2.60011">
        <ele>298</ele>
        <time>2021-01-01T15:29:33+01:00</time>
      </trkpt>
      <trkpt lat="44.00774" lon="2.5998">
        <ele>294</ele>
        <time>2021-01-01T15:30:02+01:00</time>
      </trkpt>
      <trkpt lat="44.0077" lon="2.59951">
        <ele>290</ele>
        <time>2021-01-01T15:30:23+01:00</time>
      </trkpt>
      <trkpt lat="44.00765" lon="2.5992">
        <ele>286</ele>
        <time>2021-01-01T15:30:50+01:00</time>
      </trkpt>
      <trkpt lat="44.00758" lon="2.59889">
        <ele>279</ele>
        <time>2021-01-01T15:31:22+01:00</time>
      </trkpt>
      <trkpt lat="44.00752" lon="2.59858">
        <ele>272</ele>
        <time>2021-01-01T15:31:55+01:00</time>
      </trkpt>
      <trkpt lat="44.00746" lon="2.59826">
        <ele>266</ele>
        <time>2021-01-01T15:32:27+01:00</time>
      </trkpt>
      <trkpt lat="44.00736" lon="2.59789">
        <ele>257</ele>
        <time>2021-01-01T15:32:57+01:00</time>
      </trkpt>
      <trkpt lat="44.00734" lon="2.59762">
        <ele>252</ele>
        <time>2021-01-01T15:33:30+01:00</time>
      </trkpt>
      <trkpt lat="44.0074" lon="2.59733">
        <ele>249</ele>
        <time>2021-01-01T15:33:53+01:00</time>
      </trkpt>
      <trkpt lat="44.0076" lon="2.59681">
        <ele>248</ele>
        <time>2021-01-01T15:34:18+01:00</time>
      </trkpt>
      <trkpt lat="44.00751" lon="2.59682">
        <ele>244</ele>
        <time>2021-08-12T19:45:10+02:00</time>
      </trkpt>
      <trkpt lat="44.00737" lon="2.5972">
        <ele>247</ele>
        <time>2021-01-01T15:35:31+01:00</time>
      </trkpt>
      <trkpt lat="44.00724" lon="2.59748">
        <ele>247</ele>
        <time>2021-01-01T15:35:56+01:00</time>
      </trkpt>
      <trkpt lat="44.00713" lon="2.59776">
        <ele>248</ele>
        <time>2021-01-01T15:36:15+01:00</time>
      </trkpt>
      <trkpt lat="44.00704" lon="2.59807">
        <ele>249</ele>
        <time>2021-01-01T15:36:34+01:00</time>
      </trkpt>
      <trkpt lat="44.00698" lon="2.59837">
        <ele>250</ele>
        <time>2021-01-01T15:36:52+01:00</time>
      </trkpt>
      <trkpt lat="44.00692" lon="2.59868">
        <ele>250</ele>
        <time>2021-01-01T15:37:10+01:00</time>
      </trkpt>
      <trkpt lat="44.0069" lon="2.59899">
        <ele>251</ele>
        <time>2021-01-01T15:37:28+01:00</time>
      </trkpt>
      <trkpt lat="44.00688" lon="2.5993">
        <ele>252</ele>
        <time>2021-01-01T15:37:45+01:00</time>
      </trkpt>
      <trkpt lat="44.00689" lon="2.59962">
        <ele>253</ele>
        <time>2021-01-01T15:38:04+01:00</time>
      </trkpt>
      <trkpt lat="44.00685" lon="2.59993">
        <ele>253</ele>
        <time>2021-01-01T15:38:23+01:00</time>
      </trkpt>
      <trkpt lat="44.00683" lon="2.60027">
        <ele>252</ele>
        <time>2021-01-01T15:38:42+01:00</time>
      </trkpt>
      <trkpt lat="44.00681" lon="2.60068">
        <ele>251</ele>
        <time>2021-01-01T15:38:59+01:00</time>
      </trkpt>
      <trkpt lat="44.00687" lon="2.6009">
        <ele>252</ele>
        <time>2021-01-01T15:39:17+01:00</time>
      </trkpt>
      <trkpt lat="44.00683" lon="2.60121">
        <ele>248</ele>
        <time>2021-01-01T15:39:37+01:00</time>
      </trkpt>
      <trkpt lat="44.00679" lon="2.60153">
        <ele>244</ele>
        <time>2021-01-01T15:39:58+01:00</time>
      </trkpt>
      <trkpt lat="44.00671" lon="2.60183">
        <ele>239</ele>
        <time>2021-01-01T15:40:17+01:00</time>
      </trkpt>
      <trkpt lat="44.00664" lon="2.60199">
        <ele>236</ele>
        <time>2021-08-12T19:46:35+02:00</time>
      </trkpt>
      <trkpt lat="44.0065" lon="2.60194">
        <ele>236</ele>
        <time>2021-01-01T15:40:37+01:00</time>
      </trkpt>
      <trkpt lat="44.00632" lon="2.60168">
        <ele>236</ele>
        <time>2021-01-01T15:41:00+01:00</time>
      </trkpt>
      <trkpt lat="44.00626" lon="2.60139">
        <ele>236</ele>
        <time>2021-01-01T15:41:20+01:00</time>
      </trkpt>
      <trkpt lat="44.00614" lon="2.60113">
        <ele>235</ele>
        <time>2021-01-01T15:41:36+01:00</time>
      </trkpt>
      <trkpt lat="44.00596" lon="2.60092">
        <ele>232</ele>
        <time>2021-01-01T15:43:41+01:00</time>
      </trkpt>
      <trkpt lat="44.0058" lon="2.60081">
        <ele>231</ele>
        <time>2021-01-01T15:44:05+01:00</time>
      </trkpt>
      <trkpt lat="44.00579" lon="2.60033">
        <ele>231</ele>
        <time>2021-01-01T15:44:26+01:00</time>
      </trkpt>
      <trkpt lat="44.00582" lon="2.60001">
        <ele>230</ele>
        <time>2021-01-01T15:44:47+01:00</time>
      </trkpt>
      <trkpt lat="44.00588" lon="2.5997">
        <ele>231</ele>
        <time>2021-01-01T15:45:09+01:00</time>
      </trkpt>
      <trkpt lat="44.00596" lon="2.59938">
        <ele>233</ele>
        <time>2021-01-01T15:45:30+01:00</time>
      </trkpt>
      <trkpt lat="44.00608" lon="2.59912">
        <ele>235</ele>
        <time>2021-01-01T15:45:48+01:00</time>
      </trkpt>
      <trkpt lat="44.00622" lon="2.59885">
        <ele>237</ele>
        <time>2021-01-01T15:46:09+01:00</time>
      </trkpt>
      <trkpt lat="44.00634" lon="2.59858">
        <ele>238</ele>
        <time>2021-01-01T15:46:28+01:00</time>
      </trkpt>
      <trkpt lat="44.00646" lon="2.59829">
        <ele>238</ele>
        <time>2021-01-01T15:46:47+01:00</time>
      </trkpt>
      <trkpt lat="44.00661" lon="2.59805">
        <ele>237</ele>
        <time>2021-01-01T15:47:08+01:00</time>
      </trkpt>
      <trkpt lat="44.00676" lon="2.5978">
        <ele>238</ele>
        <time>2021-01-01T15:47:27+01:00</time>
      </trkpt>
      <trkpt lat="44.00688" lon="2.5976">
        <ele>240</ele>
        <time>2021-01-01T15:47:46+01:00</time>
      </trkpt>
      <trkpt lat="44.00708" lon="2.59734">
        <ele>243</ele>
        <time>2021-01-01T15:48:05+01:00</time>
      </trkpt>
      <trkpt lat="44.00719" lon="2.59704">
        <ele>243</ele>
        <time>2021-01-01T15:48:48+01:00</time>
      </trkpt>
      <trkpt lat="44.00733" lon="2.59678">
        <ele>242</ele>
        <time>2021-01-01T15:49:09+01:00</time>
      </trkpt>
      <trkpt lat="44.00747" lon="2.59651">
        <ele>240</ele>
        <time>2021-01-01T15:49:31+01:00</time>
      </trkpt>
      <trkpt lat="44.00759" lon="2.59624">
        <ele>242</ele>
        <time>2021-01-01T15:49:49+01:00</time>
      </trkpt>
      <trkpt lat="44.0077" lon="2.59595">
        <ele>243</ele>
        <time>2021-01-01T15:50:08+01:00</time>
      </trkpt>
      <trkpt lat="44.00781" lon="2.59568">
        <ele>245</ele>
        <time>2021-01-01T15:50:27+01:00</time>
      </trkpt>
      <trkpt lat="44.0079" lon="2.59538">
        <ele>245</ele>
        <time>2021-01-01T15:50:46+01:00</time>
      </trkpt>
      <trkpt lat="44.00799" lon="2.59508">
        <ele>244</ele>
        <time>2021-01-01T15:51:08+01:00</time>
      </trkpt>
      <trkpt lat="44.00807" lon="2.59478">
        <ele>245</ele>
        <time>2021-01-01T15:51:26+01:00</time>
      </trkpt>
      <trkpt lat="44.00817" lon="2.5945">
        <ele>246</ele>
        <time>2021-01-01T15:51:49+01:00</time>
      </trkpt>
      <trkpt lat="44.00826" lon="2.59421">
        <ele>245</ele>
        <time>2021-01-01T15:52:10+01:00</time>
      </trkpt>
      <trkpt lat="44.00833" lon="2.59391">
        <ele>244</ele>
        <time>2021-01-01T15:52:27+01:00</time>
      </trkpt>
      <trkpt lat="44.00836" lon="2.59359">
        <ele>243</ele>
        <time>2021-01-01T15:52:47+01:00</time>
      </trkpt>
      <trkpt lat="44.00839" lon="2.59327">
        <ele>242</ele>
        <time>2021-01-01T15:53:21+01:00</time>
      </trkpt>
      <trkpt lat="44.00833" lon="2.59295">
        <ele>240</ele>
        <time>2021-01-01T15:54:28+01:00</time>
      </trkpt>
      <trkpt lat="44.00832" lon="2.59263">
        <ele>240</ele>
        <time>2021-01-01T15:54:50+01:00</time>
      </trkpt>
      <trkpt lat="44.0083" lon="2.59231">
        <ele>240</ele>
        <time>2021-01-01T15:55:12+01:00</time>
      </trkpt>
      <trkpt lat="44.00824" lon="2.592">
        <ele>240</ele>
        <time>2021-01-01T15:55:53+01:00</time>
      </trkpt>
      <trkpt lat="44.00818" lon="2.5917">
        <ele>240</ele>
        <time>2021-01-01T15:56:20+01:00</time>
      </trkpt>
      <trkpt lat="44.00816" lon="2.59137">
        <ele>242</ele>
        <time>2021-01-01T15:56:45+01:00</time>
      </trkpt>
      <trkpt lat="44.00809" lon="2.59108">
        <ele>243</ele>
        <time>2021-01-01T15:57:02+01:00</time>
      </trkpt>
      <trkpt lat="44.00805" lon="2.59076">
        <ele>244</ele>
        <time>2021-01-01T15:57:21+01:00</time>
      </trkpt>
      <trkpt lat="44.00796" lon="2.59047">
        <ele>243</ele>
        <time>2021-01-01T15:57:42+01:00</time>
      </trkpt>
      <trkpt lat="44.00787" lon="2.59017">
        <ele>241</ele>
        <time>2021-01-01T15:58:00+01:00</time>
      </trkpt>
      <trkpt lat="44.0078" lon="2.58987">
        <ele>239</ele>
        <time>2021-01-01T15:58:20+01:00</time>
      </trkpt>
      <trkpt lat="44.00773" lon="2.58955">
        <ele>238</ele>
        <time>2021-01-01T15:58:39+01:00</time>
      </trkpt>
      <trkpt lat="44.00766" lon="2.58924">
        <ele>236</ele>
        <time>2021-01-01T15:59:00+01:00</time>
      </trkpt>
      <trkpt lat="44.00759" lon="2.58893">
        <ele>235</ele>
        <time>2021-01-01T15:59:21+01:00</time>
      </trkpt>
      <trkpt lat="44.00754" lon="2.58861">
        <ele>235</ele>
        <time>2021-01-01T15:59:39+01:00</time>
      </trkpt>
      <trkpt lat="44.00753" lon="2.58829">
        <ele>236</ele>
        <time>2021-01-01T15:59:57+01:00</time>
      </trkpt>
      <trkpt lat="44.00748" lon="2.58798">
        <ele>236</ele>
        <time>2021-01-01T16:00:18+01:00</time>
      </trkpt>
      <trkpt lat="44.00743" lon="2.58766">
        <ele>237</ele>
        <time>2021-01-01T16:00:36+01:00</time>
      </trkpt>
      <trkpt lat="44.00735" lon="2.58736">
        <ele>237</ele>
        <time>2021-01-01T16:00:57+01:00</time>
      </trkpt>
      <trkpt lat="44.00728" lon="2.58705">
        <ele>238</ele>
        <time>2021-01-01T16:01:17+01:00</time>
      </trkpt>
      <trkpt lat="44.0072" lon="2.58675">
        <ele>238</ele>
        <time>2021-01-01T16:01:38+01:00</time>
      </trkpt>
      <trkpt lat="44.00713" lon="2.58645">
        <ele>239</ele>
        <time>2021-01-01T16:01:59+01:00</time>
      </trkpt>
      <trkpt lat="44.00705" lon="2.58615">
        <ele>240</ele>
        <time>2021-01-01T16:02:22+01:00</time>
      </trkpt>
      <trkpt lat="44.00699" lon="2.58583">
        <ele>241</ele>
        <time>2021-01-01T16:02:42+01:00</time>
      </trkpt>
      <trkpt lat="44.00693" lon="2.58553">
        <ele>241</ele>
        <time>2021-01-01T16:03:00+01:00</time>
      </trkpt>
      <trkpt lat="44.00684" lon="2.58523">
        <ele>239</ele>
        <time>2021-01-01T16:03:22+01:00</time>
      </trkpt>
      <trkpt lat="44.00675" lon="2.58495">
        <ele>237</ele>
        <time>2021-01-01T16:03:45+01:00</time>
      </trkpt>
      <trkpt lat="44.00667" lon="2.58465">
        <ele>237</ele>
        <time>2021-01-01T16:04:05+01:00</time>
      </trkpt>
      <trkpt lat="44.00656" lon="2.58436">
        <ele>239</ele>
        <time>2021-01-01T16:04:28+01:00</time>
      </trkpt>
      <trkpt lat="44.00643" lon="2.5841">
        <ele>242</ele>
        <time>2021-01-01T16:04:59+01:00</time>
      </trkpt>
      <trkpt lat="44.00631" lon="2.58383">
        <ele>246</ele>
        <time>2021-01-01T16:05:16+01:00</time>
      </trkpt>
      <trkpt lat="44.00617" lon="2.58359">
        <ele>248</ele>
        <time>2021-01-01T16:05:36+01:00</time>
      </trkpt>
      <trkpt lat="44.00607" lon="2.58329">
        <ele>250</ele>
        <time>2021-01-01T16:06:00+01:00</time>
      </trkpt>
      <trkpt lat="44.00593" lon="2.58305">
        <ele>250</ele>
        <time>2021-01-01T16:06:25+01:00</time>
      </trkpt>
      <trkpt lat="44.00579" lon="2.58278">
        <ele>248</ele>
        <time>2021-01-01T16:06:46+01:00</time>
      </trkpt>
      <trkpt lat="44.00564" lon="2.58254">
        <ele>246</ele>
        <time>2021-01-01T16:07:05+01:00</time>
      </trkpt>
      <trkpt lat="44.00551" lon="2.58227">
        <ele>249</ele>
        <time>2021-01-01T16:07:25+01:00</time>
      </trkpt>
      <trkpt lat="44.00537" lon="2.58202">
        <ele>249</ele>
        <time>2021-01-01T16:07:45+01:00</time>
      </trkpt>
      <trkpt lat="44.00523" lon="2.58176">
        <ele>248</ele>
        <time>2021-01-01T16:08:04+01:00</time>
      </trkpt>
      <trkpt lat="44.00513" lon="2.58148">
        <ele>251</ele>
        <time>2021-01-01T16:08:25+01:00</time>
      </trkpt>
      <trkpt lat="44.00499" lon="2.58123">
        <ele>252</ele>
        <time>2021-01-01T16:08:45+01:00</time>
      </trkpt>
      <trkpt lat="44.00483" lon="2.581">
        <ele>253</ele>
        <time>2021-01-01T16:09:07+01:00</time>
      </trkpt>
      <trkpt lat="44.00468" lon="2.58074">
        <ele>253</ele>
        <time>2021-01-01T16:09:25+01:00</time>
      </trkpt>
      <trkpt lat="44.00444" lon="2.58042">
        <ele>249</ele>
        <time>2021-01-01T16:09:45+01:00</time>
      </trkpt>
      <trkpt lat="44.00437" lon="2.58025">
        <ele>248</ele>
        <time>2021-01-01T16:10:07+01:00</time>
      </trkpt>
      <trkpt lat="44.00424" lon="2.57998">
        <ele>244</ele>
        <time>2021-01-01T16:11:06+01:00</time>
      </trkpt>
      <trkpt lat="44.00411" lon="2.57972">
        <ele>244</ele>
        <time>2021-01-01T16:11:27+01:00</time>
      </trkpt>
      <trkpt lat="44.00401" lon="2.57943">
        <ele>246</ele>
        <time>2021-01-01T16:11:50+01:00</time>
      </trkpt>
      <trkpt lat="44.00391" lon="2.57915">
        <ele>248</ele>
        <time>2021-01-01T16:12:09+01:00</time>
      </trkpt>
      <trkpt lat="44.00375" lon="2.5789">
        <ele>246</ele>
        <time>2021-01-01T16:12:33+01:00</time>
      </trkpt>
      <trkpt lat="44.00367" lon="2.57861">
        <ele>247</ele>
        <time>2021-01-01T16:13:08+01:00</time>
      </trkpt>
      <trkpt lat="44.0036" lon="2.57829">
        <ele>248</ele>
        <time>2021-01-01T16:13:30+01:00</time>
      </trkpt>
      <trkpt lat="44.00355" lon="2.57815">
        <ele>247</ele>
        <time>2021-08-12T19:53:40+02:00</time>
      </trkpt>
      <trkpt lat="44.00352" lon="2.578">
        <ele>248</ele>
        <time>2021-01-01T16:13:50+01:00</time>
      </trkpt>
      <trkpt lat="44.00339" lon="2.57773">
        <ele>243</ele>
        <time>2021-01-01T16:14:13+01:00</time>
      </trkpt>
      <trkpt lat="44.00328" lon="2.57744">
        <ele>243</ele>
        <time>2021-01-01T16:14:29+01:00</time>
      </trkpt>
      <trkpt lat="44.00318" lon="2.57716">
        <ele>247</ele>
        <time>2021-01-01T16:14:54+01:00</time>
      </trkpt>
      <trkpt lat="44.00304" lon="2.57691">
        <ele>248</ele>
        <time>2021-01-01T16:15:16+01:00</time>
      </trkpt>
      <trkpt lat="44.00295" lon="2.57661">
        <ele>250</ele>
        <time>2021-01-01T16:15:36+01:00</time>
      </trkpt>
      <trkpt lat="44.00292" lon="2.5763">
        <ele>255</ele>
        <time>2021-01-01T16:16:03+01:00</time>
      </trkpt>
      <trkpt lat="44.00284" lon="2.57601">
        <ele>257</ele>
        <time>2021-01-01T16:16:25+01:00</time>
      </trkpt>
      <trkpt lat="44.00272" lon="2.57572">
        <ele>254</ele>
        <time>2021-01-01T16:16:50+01:00</time>
      </trkpt>
      <trkpt lat="44.00254" lon="2.57553">
        <ele>246</ele>
        <time>2021-01-01T16:17:20+01:00</time>
      </trkpt>
      <trkpt lat="44.00238" lon="2.5753">
        <ele>243</ele>
        <time>2021-01-01T16:17:45+01:00</time>
      </trkpt>
      <trkpt lat="44.00231" lon="2.57499">
        <ele>244</ele>
        <time>2021-01-01T16:18:05+01:00</time>
      </trkpt>
      <trkpt lat="44.00229" lon="2.57468">
        <ele>244</ele>
        <time>2021-01-01T16:18:27+01:00</time>
      </trkpt>
      <trkpt lat="44.00224" lon="2.57436">
        <ele>243</ele>
        <time>2021-01-01T16:18:50+01:00</time>
      </trkpt>
      <trkpt lat="44.00216" lon="2.57405">
        <ele>242</ele>
        <time>2021-01-01T16:19:09+01:00</time>
      </trkpt>
      <trkpt lat="44.00213" lon="2.57374">
        <ele>242</ele>
        <time>2021-01-01T16:19:29+01:00</time>
      </trkpt>
      <trkpt lat="44.00214" lon="2.57341">
        <ele>242</ele>
        <time>2021-01-01T16:19:53+01:00</time>
      </trkpt>
      <trkpt lat="44.00219" lon="2.57309">
        <ele>241</ele>
        <time>2021-01-01T16:20:12+01:00</time>
      </trkpt>
      <trkpt lat="44.00224" lon="2.57278">
        <ele>240</ele>
        <time>2021-01-01T16:20:30+01:00</time>
      </trkpt>
      <trkpt lat="44.00226" lon="2.57247">
        <ele>238</ele>
        <time>2021-01-01T16:20:49+01:00</time>
      </trkpt>
      <trkpt lat="44.00229" lon="2.57215">
        <ele>239</ele>
        <time>2021-01-01T16:21:10+01:00</time>
      </trkpt>
      <trkpt lat="44.00231" lon="2.57183">
        <ele>239</ele>
        <time>2021-01-01T16:21:30+01:00</time>
      </trkpt>
      <trkpt lat="44.00237" lon="2.57152">
        <ele>239</ele>
        <time>2021-01-01T16:21:51+01:00</time>
      </trkpt>
      <trkpt lat="44.00243" lon="2.5712">
        <ele>238</ele>
        <time>2021-01-01T16:22:11+01:00</time>
      </trkpt>
      <trkpt lat="44.00249" lon="2.57089">
        <ele>237</ele>
        <time>2021-01-01T16:22:31+01:00</time>
      </trkpt>
      <trkpt lat="44.00255" lon="2.57058">
        <ele>237</ele>
        <time>2021-01-01T16:22:51+01:00</time>
      </trkpt>
      <trkpt lat="44.00261" lon="2.57027">
        <ele>237</ele>
        <time>2021-01-01T16:23:11+01:00</time>
      </trkpt>
      <trkpt lat="44.00268" lon="2.56997">
        <ele>237</ele>
        <time>2021-01-01T16:23:30+01:00</time>
      </trkpt>
      <trkpt lat="44.00276" lon="2.56967">
        <ele>238</ele>
        <time>2021-01-01T16:23:49+01:00</time>
      </trkpt>
      <trkpt lat="44.00281" lon="2.56936">
        <ele>239</ele>
        <time>2021-01-01T16:24:10+01:00</time>
      </trkpt>
      <trkpt lat="44.00288" lon="2.56905">
        <ele>239</ele>
        <time>2021-01-01T16:24:30+01:00</time>
      </trkpt>
      <trkpt lat="44.00294" lon="2.56874">
        <ele>238</ele>
        <time>2021-01-01T16:24:51+01:00</time>
      </trkpt>
      <trkpt lat="44.00301" lon="2.56843">
        <ele>238</ele>
        <time>2021-01-01T16:25:09+01:00</time>
      </trkpt>
      <trkpt lat="44.00306" lon="2.56811">
        <ele>238</ele>
        <time>2021-01-01T16:25:27+01:00</time>
      </trkpt>
      <trkpt lat="44.00308" lon="2.56776">
        <ele>238</ele>
        <time>2021-01-01T16:25:46+01:00</time>
      </trkpt>
      <trkpt lat="44.0031" lon="2.56748">
        <ele>239</ele>
        <time>2021-01-01T16:26:09+01:00</time>
      </trkpt>
      <trkpt lat="44.00311" lon="2.56715">
        <ele>240</ele>
        <time>2021-01-01T16:26:29+01:00</time>
      </trkpt>
      <trkpt lat="44.0031" lon="2.56684">
        <ele>241</ele>
        <time>2021-01-01T16:26:47+01:00</time>
      </trkpt>
      <trkpt lat="44.00309" lon="2.56652">
        <ele>243</ele>
        <time>2021-01-01T16:27:06+01:00</time>
      </trkpt>
      <trkpt lat="44.00305" lon="2.5662">
        <ele>245</ele>
        <time>2021-01-01T16:27:28+01:00</time>
      </trkpt>
      <trkpt lat="44.00302" lon="2.56588">
        <ele>247</ele>
        <time>2021-01-01T16:27:46+01:00</time>
      </trkpt>
      <trkpt lat="44.00295" lon="2.56556">
        <ele>250</ele>
        <time>2021-01-01T16:28:09+01:00</time>
      </trkpt>
      <trkpt lat="44.00288" lon="2.56526">
        <ele>251</ele>
        <time>2021-01-01T16:28:27+01:00</time>
      </trkpt>
      <trkpt lat="44.00277" lon="2.56498">
        <ele>250</ele>
        <time>2021-01-01T16:28:55+01:00</time>
      </trkpt>
      <trkpt lat="44.00265" lon="2.5647">
        <ele>248</ele>
        <time>2021-01-01T16:29:14+01:00</time>
      </trkpt>
      <trkpt lat="44.00253" lon="2.56444">
        <ele>245</ele>
        <time>2021-01-01T16:29:34+01:00</time>
      </trkpt>
      <trkpt lat="44.00239" lon="2.56419">
        <ele>245</ele>
        <time>2021-01-01T16:29:54+01:00</time>
      </trkpt>
      <trkpt lat="44.00221" lon="2.564">
        <ele>248</ele>
        <time>2021-01-01T16:30:13+01:00</time>
      </trkpt>
      <trkpt lat="44.00202" lon="2.56382">
        <ele>250</ele>
        <time>2021-01-01T16:30:30+01:00</time>
      </trkpt>
      <trkpt lat="44.00181" lon="2.56371">
        <ele>249</ele>
        <time>2021-01-01T16:30:50+01:00</time>
      </trkpt>
      <trkpt lat="44.00155" lon="2.56363">
        <ele>247</ele>
        <time>2021-01-01T16:31:07+01:00</time>
      </trkpt>
      <trkpt lat="44.00141" lon="2.56345">
        <ele>246</ele>
        <time>2021-01-01T16:31:25+01:00</time>
      </trkpt>
      <trkpt lat="44.00118" lon="2.5634">
        <ele>245</ele>
        <time>2021-01-01T16:31:49+01:00</time>
      </trkpt>
      <trkpt lat="44.00098" lon="2.56333">
        <ele>244</ele>
        <time>2021-01-01T16:32:04+01:00</time>
      </trkpt>
      <trkpt lat="44.00076" lon="2.56332">
        <ele>243</ele>
        <time>2021-01-01T16:32:22+01:00</time>
      </trkpt>
      <trkpt lat="44.00057" lon="2.56319">
        <ele>244</ele>
        <time>2021-01-01T16:32:46+01:00</time>
      </trkpt>
      <trkpt lat="44.00034" lon="2.56316">
        <ele>243</ele>
        <time>2021-01-01T16:33:08+01:00</time>
      </trkpt>
      <trkpt lat="44.00011" lon="2.56313">
        <ele>243</ele>
        <time>2021-01-01T16:33:25+01:00</time>
      </trkpt>
      <trkpt lat="43.99988" lon="2.56305">
        <ele>244</ele>
        <time>2021-01-01T16:33:45+01:00</time>
      </trkpt>
      <trkpt lat="43.99966" lon="2.56312">
        <ele>238</ele>
        <time>2021-01-01T16:34:06+01:00</time>
      </trkpt>
      <trkpt lat="43.99943" lon="2.56307">
        <ele>237</ele>
        <time>2021-01-01T16:34:22+01:00</time>
      </trkpt>
      <trkpt lat="43.99921" lon="2.56304">
        <ele>235</ele>
        <time>2021-01-01T16:35:02+01:00</time>
      </trkpt>
      <trkpt lat="43.99898" lon="2.56306">
        <ele>232</ele>
        <time>2021-01-01T16:35:23+01:00</time>
      </trkpt>
      <trkpt lat="43.9988" lon="2.56287">
        <ele>234</ele>
        <time>2021-01-01T16:35:47+01:00</time>
      </trkpt>
      <trkpt lat="43.99889" lon="2.56258">
        <ele>237</ele>
        <time>2021-08-12T19:59:05+02:00</time>
      </trkpt>
      <trkpt lat="43.99902" lon="2.56245">
        <ele>240</ele>
        <time>2021-01-01T16:36:09+01:00</time>
      </trkpt>
    </trkseg>
  </trk>
</gpx>